Time;durP1;ratioP1;P1;durP2;ratioP2;P2;SDS_P1;SDS_P2;PMS_P1;PMS_P2;Temp;Humidity;BMP_temperature;BMP_pressure;BME280_temperature;BME280_humidity;BME280_pressure;Samples;Min_cycle;Max_cycle;Signal;HPM_P1;HPM_P2
2022/04/11 00:00:52;;;;;;;;;;;14.50;56.90;;;;;;5099436;28;19980;-67
2022/04/11 00:03:17;;;;;;;;;;;14.50;56.80;;;;;;5099814;28;20265;-67
2022/04/11 00:05:43;;;;;;;;;;;14.50;56.80;;;;;;5100636;28;19908;-68
2022/04/11 00:08:08;;;;;;;;;;;14.50;56.90;;;;;;5100686;28;19900;-67
2022/04/11 00:10:34;;;;;;;;;;;14.40;56.80;;;;;;5100580;28;19907;-66
2022/04/11 00:13:01;;;;;;;;;;;14.50;56.70;;;;;;5100575;28;19908;-66
2022/04/11 00:15:26;;;;;;;;;;;14.50;56.80;;;;;;5099289;28;20209;-67
2022/04/11 00:17:52;;;;;;;;;;;14.40;56.80;;;;;;5100363;28;19900;-66
2022/04/11 00:20:18;;;;;;;;;;;14.40;56.80;;;;;;5100477;28;19914;-66
2022/04/11 00:22:44;;;;;;;;;;;14.40;56.80;;;;;;5100393;28;19900;-67
2022/04/11 00:25:10;;;;;;;;;;;14.40;56.80;;;;;;5100387;28;19914;-67
2022/04/11 00:27:35;;;;;;;;;;;14.40;56.80;;;;;;5100318;28;20006;-66
2022/04/11 00:30:01;;;;;;;;;;;14.40;56.80;;;;;;5100276;28;19996;-66
2022/04/11 00:32:26;;;;;;;;;;;14.40;56.90;;;;;;5100198;28;20261;-67
2022/04/11 00:34:52;;;;;;;;;;;14.40;56.80;;;;;;5100187;28;19900;-67
2022/04/11 00:37:18;;;;;;;;;;;14.40;56.80;;;;;;5100441;28;19915;-66
2022/04/11 00:39:43;;;;;;;;;;;14.40;56.80;;;;;;5100054;28;19908;-67
2022/04/11 00:42:13;;;;;;;;;;;14.40;56.80;;;;;;5100177;28;19938;-67
2022/04/11 00:44:39;;;;;;;;;;;14.40;56.80;;;;;;5100040;28;19900;-67
2022/04/11 00:47:04;;;;;;;;;;;14.40;56.80;;;;;;5100001;28;19915;-66
2022/04/11 00:49:30;;;;;;;;;;;14.40;56.80;;;;;;5100065;28;19915;-67
2022/04/11 00:51:56;;;;;;;;;;;14.40;56.80;;;;;;5099821;28;19922;-67
2022/04/11 00:54:22;;;;;;;;;;;14.40;56.70;;;;;;5099987;28;19908;-67
2022/04/11 00:56:48;;;;;;;;;;;14.40;56.80;;;;;;5099941;28;20195;-66
2022/04/11 00:59:15;;;;;;;;;;;14.40;56.70;;;;;;5099757;28;19957;-66
2022/04/11 01:01:41;;;;;;;;;;;14.40;56.70;;;;;;5099899;28;19908;-66
2022/04/11 01:04:22;;;;;;;;;;;14.40;56.70;;;;;;5099896;28;20183;-66
2022/04/11 01:06:51;;;;;;;;;;;14.40;56.60;;;;;;5099903;28;20333;-68
2022/04/11 01:09:17;;;;;;;;;;;14.30;56.70;;;;;;5099788;28;19962;-67
2022/04/11 01:11:42;;;;;;;;;;;14.30;56.70;;;;;;5099746;28;20192;-66
2022/04/11 01:14:08;;;;;;;;;;;14.30;56.80;;;;;;5100441;28;20248;-67
2022/04/11 01:16:34;;;;;;;;;;;14.40;56.80;;;;;;5103933;28;19906;-66
2022/04/11 01:18:59;;;;;;;;;;;14.40;56.70;;;;;;5103835;28;19912;-66
2022/04/11 01:21:28;;;;;;;;;;;14.40;56.70;;;;;;5103804;28;19908;-67
2022/04/11 01:23:54;;;;;;;;;;;14.30;56.60;;;;;;5103729;28;19899;-67
2022/04/11 01:26:22;;;;;;;;;;;14.40;56.70;;;;;;5103815;28;19908;-66
2022/04/11 01:28:48;;;;;;;;;;;14.40;56.60;;;;;;5103784;28;19899;-66
2022/04/11 01:31:13;;;;;;;;;;;14.30;56.60;;;;;;5103605;28;19923;-67
2022/04/11 01:33:39;;;;;;;;;;;14.30;56.70;;;;;;5103612;28;20211;-66
2022/04/11 01:36:05;;;;;;;;;;;14.30;57.30;;;;;;5103520;28;19911;-67
2022/04/11 01:38:30;;;;;;;;;;;14.30;56.50;;;;;;5103429;28;19984;-67
2022/04/11 01:40:56;;;;;;;;;;;14.40;56.60;;;;;;5103436;28;19908;-66
2022/04/11 01:43:22;;;;;;;;;;;14.30;56.60;;;;;;5103454;28;19911;-68
2022/04/11 01:45:48;;;;;;;;;;;14.30;56.60;;;;;;5103529;28;20207;-66
2022/04/11 01:48:14;;;;;;;;;;;14.30;56.70;;;;;;5103345;28;19931;-66
2022/04/11 01:50:40;;;;;;;;;;;14.30;56.60;;;;;;5103373;28;19908;-66
2022/04/11 01:53:08;;;;;;;;;;;14.30;56.70;;;;;;5103112;28;19923;-67
2022/04/11 01:55:34;;;;;;;;;;;14.30;56.70;;;;;;5103167;28;19907;-66
2022/04/11 01:58:00;;;;;;;;;;;14.30;57.30;;;;;;5103177;28;20270;-67
2022/04/11 02:00:27;;;;;;;;;;;14.20;56.70;;;;;;5103133;28;19908;-67
2022/04/11 02:02:52;;;;;;;;;;;14.30;56.80;;;;;;5103072;28;19900;-66
2022/04/11 02:05:18;;;;;;;;;;;14.20;56.70;;;;;;5101811;28;19930;-66
2022/04/11 02:07:43;;;;;;;;;;;14.20;56.60;;;;;;5102950;28;20218;-66
2022/04/11 02:10:09;;;;;;;;;;;14.20;56.60;;;;;;5102937;28;19915;-66
2022/04/11 02:12:35;;;;;;;;;;;14.20;56.50;;;;;;5102826;28;19915;-67
2022/04/11 02:15:01;;;;;;;;;;;14.30;56.70;;;;;;5102920;28;20352;-67
2022/04/11 02:17:27;;;;;;;;;;;14.30;56.60;;;;;;5102808;28;19994;-66
2022/04/11 02:19:52;;;;;;;;;;;14.30;56.60;;;;;;5102746;28;19912;-66
2022/04/11 02:22:18;;;;;;;;;;;14.30;56.60;;;;;;5102786;28;19915;-67
2022/04/11 02:24:43;;;;;;;;;;;14.30;56.60;;;;;;5102700;28;20219;-67
2022/04/11 02:27:09;;;;;;;;;;;14.20;56.50;;;;;;5101610;28;19908;-67
2022/04/11 02:29:34;;;;;;;;;;;14.20;56.40;;;;;;5102546;28;19908;-67
2022/04/11 02:32:00;;;;;;;;;;;14.20;56.40;;;;;;5102564;28;19908;-66
2022/04/11 02:34:26;;;;;;;;;;;14.30;56.50;;;;;;5102489;28;19987;-66
2022/04/11 02:36:54;;;;;;;;;;;14.20;56.40;;;;;;5102522;28;19908;-66
2022/04/11 02:39:20;;;;;;;;;;;14.20;56.50;;;;;;5102351;28;19918;-66
2022/04/11 02:41:46;;;;;;;;;;;14.20;56.50;;;;;;5102382;28;19940;-67
2022/04/11 02:44:11;;;;;;;;;;;14.20;56.50;;;;;;5102308;28;19924;-67
2022/04/11 02:46:37;;;;;;;;;;;14.30;56.50;;;;;;5102328;28;19900;-66
2022/04/11 02:49:02;;;;;;;;;;;14.20;56.40;;;;;;5102211;28;19908;-67
2022/04/11 02:51:28;;;;;;;;;;;14.30;56.40;;;;;;5102080;28;19915;-67
2022/04/11 02:53:53;;;;;;;;;;;14.30;56.40;;;;;;5102074;28;19900;-66
2022/04/11 02:56:19;;;;;;;;;;;14.20;57.00;;;;;;5102106;28;20108;-67
2022/04/11 02:58:44;;;;;;;;;;;14.20;56.30;;;;;;5101930;28;19922;-67
2022/04/11 03:01:10;;;;;;;;;;;14.30;56.40;;;;;;5102032;28;20204;-66
2022/04/11 03:03:37;;;;;;;;;;;14.20;56.40;;;;;;5101937;28;19908;-67
2022/04/11 03:06:03;;;;;;;;;;;14.30;56.40;;;;;;5101904;28;19931;-67
2022/04/11 03:08:28;;;;;;;;;;;14.30;56.40;;;;;;5101889;28;20239;-66
2022/04/11 03:10:54;;;;;;;;;;;14.20;56.20;;;;;;5101769;28;19950;-66
2022/04/11 03:13:20;;;;;;;;;;;14.20;56.30;;;;;;5101716;28;19965;-66
2022/04/11 03:15:46;;;;;;;;;;;14.20;56.30;;;;;;5101712;28;19914;-67
2022/04/11 03:18:11;;;;;;;;;;;14.20;56.30;;;;;;5101641;28;19950;-66
2022/04/11 03:20:37;;;;;;;;;;;14.20;56.30;;;;;;5101625;28;19903;-67
2022/04/11 03:23:02;;;;;;;;;;;14.20;56.20;;;;;;5101546;28;19908;-67
2022/04/11 03:25:28;;;;;;;;;;;14.20;56.20;;;;;;5101629;28;19912;-68
2022/04/11 03:27:53;;;;;;;;;;;14.20;56.30;;;;;;5101478;28;19967;-66
2022/04/11 03:30:19;;;;;;;;;;;14.20;56.30;;;;;;5101527;28;19931;-66
2022/04/11 03:32:44;;;;;;;;;;;14.20;56.30;;;;;;5101416;28;20110;-67
2022/04/11 03:35:10;;;;;;;;;;;14.20;56.30;;;;;;5101449;28;20146;-67
2022/04/11 03:37:36;;;;;;;;;;;14.20;56.30;;;;;;5101135;28;19914;-66
2022/04/11 03:40:01;;;;;;;;;;;14.10;56.40;;;;;;5101282;28;19915;-66
2022/04/11 03:42:27;;;;;;;;;;;14.00;56.60;;;;;;5101276;28;19927;-67
2022/04/11 03:44:52;;;;;;;;;;;14.00;56.70;;;;;;5101178;28;19958;-67
2022/04/11 03:47:18;;;;;;;;;;;14.10;56.60;;;;;;5100897;28;19900;-67
2022/04/11 03:49:44;;;;;;;;;;;14.00;56.50;;;;;;5101119;28;19900;-66
2022/04/11 03:52:10;;;;;;;;;;;14.00;56.70;;;;;;5100935;28;19916;-67
2022/04/11 03:54:35;;;;;;;;;;;14.00;56.70;;;;;;5101039;28;20260;-66
2022/04/11 03:57:01;;;;;;;;;;;14.00;56.80;;;;;;5101009;28;19907;-66
2022/04/11 03:59:28;;;;;;;;;;;14.00;56.70;;;;;;5101134;28;19930;-67
2022/04/11 04:01:55;;;;;;;;;;;14.00;56.60;;;;;;5100932;28;20155;-66
2022/04/11 04:04:20;;;;;;;;;;;14.00;56.60;;;;;;5100975;28;19983;-66
2022/04/11 04:06:46;;;;;;;;;;;14.00;56.70;;;;;;5100914;28;19908;-67
2022/04/11 04:09:12;;;;;;;;;;;14.00;56.80;;;;;;5100791;28;19908;-67
2022/04/11 04:11:37;;;;;;;;;;;14.00;56.80;;;;;;5100835;28;19900;-66
2022/04/11 04:14:03;;;;;;;;;;;14.00;56.60;;;;;;5100672;28;19908;-67
2022/04/11 04:16:28;;;;;;;;;;;14.00;56.60;;;;;;5100752;28;19900;-66
2022/04/11 04:18:54;;;;;;;;;;;14.00;56.70;;;;;;5100624;28;19911;-66
2022/04/11 04:21:19;;;;;;;;;;;14.00;56.80;;;;;;5100739;28;19939;-67
2022/04/11 04:23:45;;;;;;;;;;;14.00;56.50;;;;;;5100514;28;19907;-66
2022/04/11 04:26:11;;;;;;;;;;;14.00;56.50;;;;;;5100613;28;19980;-66
2022/04/11 04:28:36;;;;;;;;;;;13.90;56.60;;;;;;5100464;28;20188;-66
2022/04/11 04:31:02;;;;;;;;;;;13.90;56.20;;;;;;5100496;28;19900;-67
2022/04/11 04:33:31;;;;;;;;;;;13.90;56.40;;;;;;5100529;28;19975;-66
2022/04/11 04:35:56;;;;;;;;;;;13.90;56.40;;;;;;5100455;28;20146;-67
2022/04/11 04:38:22;;;;;;;;;;;13.90;56.50;;;;;;5100339;28;19908;-67
2022/04/11 04:40:47;;;;;;;;;;;13.90;56.50;;;;;;5100443;28;20196;-67
2022/04/11 04:43:13;;;;;;;;;;;14.00;56.30;;;;;;5100298;28;19900;-67
2022/04/11 04:45:39;;;;;;;;;;;13.90;56.40;;;;;;5100361;28;19900;-67
2022/04/11 04:48:05;;;;;;;;;;;13.90;56.60;;;;;;5100169;28;19908;-66
2022/04/11 04:50:30;;;;;;;;;;;13.80;56.50;;;;;;5099765;28;19915;-67
2022/04/11 04:52:56;;;;;;;;;;;13.90;57.20;;;;;;5100086;28;19916;-67
2022/04/11 04:55:22;;;;;;;;;;;13.90;56.50;;;;;;5100231;28;19912;-67
2022/04/11 04:57:48;;;;;;;;;;;13.90;56.50;;;;;;5098882;28;19943;-67
2022/04/11 05:00:14;;;;;;;;;;;13.90;56.50;;;;;;5100153;28;19938;-66
2022/04/11 05:02:39;;;;;;;;;;;13.90;56.50;;;;;;5100113;28;19949;-67
2022/04/11 05:05:06;;;;;;;;;;;13.90;56.30;;;;;;5100110;28;19915;-66
2022/04/11 05:07:31;;;;;;;;;;;13.90;56.30;;;;;;5100142;28;20142;-66
2022/04/11 05:09:57;;;;;;;;;;;13.90;56.40;;;;;;5100071;28;19908;-67
2022/04/11 05:12:23;;;;;;;;;;;13.80;56.30;;;;;;5100155;28;19908;-67
2022/04/11 05:14:48;;;;;;;;;;;13.80;56.40;;;;;;5100090;28;19900;-67
2022/04/11 05:17:14;;;;;;;;;;;13.90;56.30;;;;;;5100025;28;19949;-67
2022/04/11 05:19:39;;;;;;;;;;;13.90;57.00;;;;;;5099949;28;19912;-66
2022/04/11 05:22:06;;;;;;;;;;;13.90;56.30;;;;;;5099936;28;19996;-67
2022/04/11 05:24:32;;;;;;;;;;;13.80;56.30;;;;;;5099946;28;19979;-66
2022/04/11 05:26:57;;;;;;;;;;;13.80;56.30;;;;;;5099981;28;19908;-67
2022/04/11 05:29:23;;;;;;;;;;;13.80;56.30;;;;;;5099927;28;19907;-67
2022/04/11 05:31:49;;;;;;;;;;;13.90;56.30;;;;;;5099961;28;19996;-66
2022/04/11 05:34:14;;;;;;;;;;;13.90;56.20;;;;;;5099821;28;19908;-66
2022/04/11 05:36:40;;;;;;;;;;;13.80;56.30;;;;;;5098584;28;19907;-67
2022/04/11 05:39:05;;;;;;;;;;;13.80;56.40;;;;;;5099741;28;19912;-67
2022/04/11 05:41:31;;;;;;;;;;;13.80;56.30;;;;;;5099887;28;19915;-67
2022/04/11 05:43:56;;;;;;;;;;;13.80;56.40;;;;;;5099787;28;19933;-67
2022/04/11 05:46:22;;;;;;;;;;;13.80;56.30;;;;;;5099712;28;19908;-66
2022/04/11 05:48:47;;;;;;;;;;;13.90;56.30;;;;;;5099731;28;19987;-66
2022/04/11 05:51:13;;;;;;;;;;;13.90;56.20;;;;;;5099561;28;19955;-66
2022/04/11 05:53:40;;;;;;;;;;;13.90;56.20;;;;;;5099712;28;19904;-66
2022/04/11 05:56:05;;;;;;;;;;;13.90;56.20;;;;;;5099615;28;19923;-66
2022/04/11 05:58:31;;;;;;;;;;;13.90;56.30;;;;;;5098323;28;20226;-66
2022/04/11 06:00:56;;;;;;;;;;;13.90;56.30;;;;;;5101340;28;19915;-67
2022/04/11 06:03:22;;;;;;;;;;;13.90;56.20;;;;;;5103346;28;19908;-66
2022/04/11 06:05:47;;;;;;;;;;;13.90;56.80;;;;;;5103334;28;19907;-66
2022/04/11 06:08:13;;;;;;;;;;;14.00;56.20;;;;;;5103137;28;19900;-67
2022/04/11 06:10:39;;;;;;;;;;;14.00;56.20;;;;;;5103283;28;19900;-67
2022/04/11 06:13:04;;;;;;;;;;;14.00;56.70;;;;;;5103087;28;19915;-66
2022/04/11 06:15:30;;;;;;;;;;;14.00;56.10;;;;;;5103188;28;19998;-67
2022/04/11 06:17:59;;;;;;;;;;;14.00;56.00;;;;;;5102955;28;19908;-66
2022/04/11 06:20:24;;;;;;;;;;;14.10;55.90;;;;;;5103058;28;19911;-66
2022/04/11 06:22:50;;;;;;;;;;;14.10;55.80;;;;;;5103009;28;20002;-66
2022/04/11 06:25:15;;;;;;;;;;;14.00;56.00;;;;;;5102862;28;19907;-66
2022/04/11 06:27:41;;;;;;;;;;;14.00;56.10;;;;;;5102891;28;19915;-67
2022/04/11 06:30:07;;;;;;;;;;;14.00;56.00;;;;;;5102804;28;19915;-66
2022/04/11 06:32:33;;;;;;;;;;;14.10;55.90;;;;;;5102758;28;19911;-67
2022/04/11 06:34:59;;;;;;;;;;;14.00;55.90;;;;;;5102791;28;19900;-66
2022/04/11 06:37:25;;;;;;;;;;;14.00;55.90;;;;;;5102643;28;19907;-66
2022/04/11 06:39:51;;;;;;;;;;;14.10;55.90;;;;;;5102675;28;20120;-67
2022/04/11 06:42:16;;;;;;;;;;;14.00;55.80;;;;;;5102662;28;19915;-67
2022/04/11 06:44:42;;;;;;;;;;;14.00;55.70;;;;;;5102546;28;19900;-66
2022/04/11 06:47:08;;;;;;;;;;;14.00;55.90;;;;;;5102608;28;19915;-67
2022/04/11 06:49:34;;;;;;;;;;;14.00;55.80;;;;;;5102660;28;20102;-68
2022/04/11 06:52:00;;;;;;;;;;;14.00;55.80;;;;;;5102349;28;19916;-66
2022/04/11 06:54:26;;;;;;;;;;;14.00;55.80;;;;;;5102347;28;20135;-67
2022/04/11 06:56:51;;;;;;;;;;;14.00;55.80;;;;;;5102351;28;19908;-66
2022/04/11 06:59:17;;;;;;;;;;;14.00;55.80;;;;;;5102176;28;19920;-67
2022/04/11 07:01:42;;;;;;;;;;;14.00;55.90;;;;;;5102132;28;20107;-67
2022/04/11 07:04:08;;;;;;;;;;;14.00;55.90;;;;;;5102295;28;19957;-66
2022/04/11 07:06:34;;;;;;;;;;;14.00;55.90;;;;;;5102044;28;20069;-66
2022/04/11 07:08:59;;;;;;;;;;;14.00;55.80;;;;;;5102017;28;19915;-66
2022/04/11 07:11:25;;;;;;;;;;;14.00;55.80;;;;;;5101988;28;19935;-66
2022/04/11 07:13:50;;;;;;;;;;;14.10;55.70;;;;;;5101556;28;20214;-67
2022/04/11 07:16:16;;;;;;;;;;;14.10;55.60;;;;;;5101864;28;20259;-66
2022/04/11 07:18:41;;;;;;;;;;;14.10;55.70;;;;;;5101842;28;19930;-67
2022/04/11 07:21:07;;;;;;;;;;;14.10;55.60;;;;;;5101843;28;19910;-66
2022/04/11 07:23:32;;;;;;;;;;;14.10;55.50;;;;;;5101728;28;19908;-67
2022/04/11 07:25:58;;;;;;;;;;;14.20;55.50;;;;;;5101829;28;19971;-67
2022/04/11 07:28:24;;;;;;;;;;;14.20;55.40;;;;;;5101703;28;20333;-66
2022/04/11 07:30:49;;;;;;;;;;;14.10;55.40;;;;;;5101722;28;19975;-67
2022/04/11 07:33:15;;;;;;;;;;;14.20;55.40;;;;;;5101605;28;20001;-67
2022/04/11 07:35:40;;;;;;;;;;;14.10;55.50;;;;;;5101602;28;19908;-67
2022/04/11 07:38:06;;;;;;;;;;;14.10;55.40;;;;;;5101439;28;19908;-67
2022/04/11 07:40:31;;;;;;;;;;;14.10;55.50;;;;;;5101463;28;20214;-67
2022/04/11 07:42:57;;;;;;;;;;;14.00;55.60;;;;;;5101402;28;19908;-66
2022/04/11 07:45:22;;;;;;;;;;;14.10;55.50;;;;;;5101326;28;20099;-67
2022/04/11 07:47:48;;;;;;;;;;;14.10;55.50;;;;;;5101428;28;19904;-66
2022/04/11 07:50:14;;;;;;;;;;;14.10;55.40;;;;;;5101320;28;19903;-66
2022/04/11 07:52:40;;;;;;;;;;;14.10;55.40;;;;;;5101076;28;19916;-66
2022/04/11 07:55:07;;;;;;;;;;;14.10;55.50;;;;;;5101111;28;20040;-67
2022/04/11 07:57:33;;;;;;;;;;;14.10;55.70;;;;;;5101163;28;19995;-67
2022/04/11 07:59:58;;;;;;;;;;;14.10;55.60;;;;;;5101082;28;20193;-67
2022/04/11 08:02:25;;;;;;;;;;;14.10;55.50;;;;;;5101052;28;19991;-66
2022/04/11 08:04:51;;;;;;;;;;;14.00;55.50;;;;;;5101045;28;19973;-67
2022/04/11 08:07:17;;;;;;;;;;;14.10;55.60;;;;;;5100981;28;19911;-67
2022/04/11 08:09:42;;;;;;;;;;;14.10;55.50;;;;;;5100914;28;20283;-67
2022/04/11 08:12:08;;;;;;;;;;;14.10;55.50;;;;;;5100935;28;19908;-67
2022/04/11 08:14:34;;;;;;;;;;;14.10;55.60;;;;;;5099555;28;19900;-66
2022/04/11 08:17:03;;;;;;;;;;;14.10;55.50;;;;;;5100861;28;19915;-66
2022/04/11 08:19:32;;;;;;;;;;;14.10;55.50;;;;;;5100854;28;20329;-67
2022/04/11 08:21:57;;;;;;;;;;;14.10;55.50;;;;;;5101080;28;20011;-66
2022/04/11 08:24:23;;;;;;;;;;;14.10;55.70;;;;;;5099793;28;19912;-67
2022/04/11 08:26:49;;;;;;;;;;;14.00;55.60;;;;;;5100818;28;19938;-66
2022/04/11 08:29:15;;;;;;;;;;;14.10;55.60;;;;;;5100838;28;19989;-67
2022/04/11 08:31:40;;;;;;;;;;;14.10;55.70;;;;;;5100852;28;20267;-67
2022/04/11 08:34:06;;;;;;;;;;;14.10;55.70;;;;;;5100529;28;19911;-67
2022/04/11 08:36:32;;;;;;;;;;;14.00;55.60;;;;;;5100515;28;19914;-68
2022/04/11 08:38:57;;;;;;;;;;;14.10;55.60;;;;;;5100427;28;19912;-67
2022/04/11 08:41:26;;;;;;;;;;;14.10;55.60;;;;;;5100394;28;19937;-66
2022/04/11 08:43:52;;;;;;;;;;;14.10;55.60;;;;;;5100472;28;20254;-66
2022/04/11 08:46:19;;;;;;;;;;;14.10;55.60;;;;;;5100337;28;19908;-67
2022/04/11 08:48:45;;;;;;;;;;;14.10;55.60;;;;;;5100526;28;19908;-67
2022/04/11 08:51:10;;;;;;;;;;;14.10;55.70;;;;;;5100257;28;19915;-66
2022/04/11 08:53:36;;;;;;;;;;;14.10;55.60;;;;;;5100558;28;19908;-66
2022/04/11 08:56:01;;;;;;;;;;;14.10;55.70;;;;;;5100331;28;20259;-66
2022/04/11 08:58:27;;;;;;;;;;;14.10;55.60;;;;;;5100107;28;19956;-66
2022/04/11 09:00:53;;;;;;;;;;;14.10;55.60;;;;;;5100239;28;19908;-67
2022/04/11 09:03:18;;;;;;;;;;;14.10;55.70;;;;;;5100258;28;19968;-65
2022/04/11 09:06:01;;;;;;;;;;;14.10;55.60;;;;;;5100234;28;19916;-66
2022/04/11 09:08:40;;;;;;;;;;;14.20;55.60;;;;;;5100134;28;20085;-66
2022/04/11 09:11:06;;;;;;;;;;;14.20;55.60;;;;;;5099108;28;19975;-67
2022/04/11 09:13:48;;;;;;;;;;;14.20;55.60;;;;;;5100103;28;19919;-66
2022/04/11 09:16:14;;;;;;;;;;;14.20;55.60;;;;;;5098747;28;19904;-66
2022/04/11 09:18:47;;;;;;;;;;;14.10;55.70;;;;;;5100024;28;19916;-66
2022/04/11 09:21:13;;;;;;;;;;;14.10;55.70;;;;;;5100045;28;19922;-67
2022/04/11 09:23:39;;;;;;;;;;;14.10;55.70;;;;;;5100059;28;20005;-67
2022/04/11 09:26:14;;;;;;;;;;;14.10;55.70;;;;;;5099929;28;19946;-66
2022/04/11 09:28:40;;;;;;;;;;;14.10;55.70;;;;;;5099960;28;19978;-66
2022/04/11 09:31:06;;;;;;;;;;;14.20;55.70;;;;;;5099874;28;19949;-67
2022/04/11 09:33:37;;;;;;;;;;;14.20;55.70;;;;;;5099960;28;20000;-67
2022/04/11 09:36:03;;;;;;;;;;;14.20;55.70;;;;;;5101988;28;19915;-66
2022/04/11 09:38:29;;;;;;;;;;;14.20;55.70;;;;;;5102565;28;19904;-67
2022/04/11 09:40:55;;;;;;;;;;;14.20;55.70;;;;;;5102426;28;19916;-66
2022/04/11 09:43:25;;;;;;;;;;;14.20;55.80;;;;;;5103768;28;20096;-66
2022/04/11 09:45:51;;;;;;;;;;;14.10;55.80;;;;;;5103656;28;19908;-67
2022/04/11 09:48:17;;;;;;;;;;;14.20;55.80;;;;;;5103666;28;20219;-66
2022/04/11 09:50:42;;;;;;;;;;;14.20;55.90;;;;;;5103559;28;19957;-67
2022/04/11 09:53:08;;;;;;;;;;;14.10;55.90;;;;;;5103418;28;19908;-67
2022/04/11 09:55:34;;;;;;;;;;;14.10;55.80;;;;;;5103531;28;20398;-66
2022/04/11 09:58:01;;;;;;;;;;;14.20;55.80;;;;;;5103463;28;19915;-67
2022/04/11 10:00:27;;;;;;;;;;;14.20;55.90;;;;;;5103415;28;19949;-66
2022/04/11 10:02:52;;;;;;;;;;;14.20;55.80;;;;;;5103196;28;19908;-67
2022/04/11 10:05:18;;;;;;;;;;;14.20;55.80;;;;;;5103411;28;19972;-67
2022/04/11 10:07:45;;;;;;;;;;;14.20;55.70;;;;;;5103169;28;20325;-66
2022/04/11 10:10:13;;;;;;;;;;;14.20;55.80;;;;;;5103268;28;19904;-66
2022/04/11 10:12:39;;;;;;;;;;;14.20;55.80;;;;;;5103190;28;20180;-66
2022/04/11 10:15:05;;;;;;;;;;;14.20;55.70;;;;;;5103020;28;19915;-67
2022/04/11 10:17:30;;;;;;;;;;;14.20;55.80;;;;;;5103022;28;19915;-66
2022/04/11 10:19:56;;;;;;;;;;;14.20;55.80;;;;;;5102906;28;19911;-66
2022/04/11 10:22:27;;;;;;;;;;;14.20;55.80;;;;;;5102934;28;19908;-67
2022/04/11 10:25:04;;;;;;;;;;;14.20;55.80;;;;;;5102902;28;19923;-67
2022/04/11 10:27:29;;;;;;;;;;;14.20;55.70;;;;;;5102883;28;20208;-68
2022/04/11 10:29:56;;;;;;;;;;;14.20;55.80;;;;;;5102751;28;19908;-66
2022/04/11 10:32:25;;;;;;;;;;;14.20;55.80;;;;;;5102722;28;19974;-66
2022/04/11 10:34:56;;;;;;;;;;;14.20;55.80;;;;;;5102668;28;19908;-66
2022/04/11 10:37:25;;;;;;;;;;;14.30;55.90;;;;;;5102614;28;19934;-67
2022/04/11 10:39:52;;;;;;;;;;;14.30;55.90;;;;;;5102442;28;19918;-67
2022/04/11 10:42:17;;;;;;;;;;;14.20;55.90;;;;;;5101492;28;19904;-66
2022/04/11 10:44:48;;;;;;;;;;;14.20;55.80;;;;;;5102427;28;19908;-66
2022/04/11 10:47:15;;;;;;;;;;;14.20;55.90;;;;;;5101463;28;19939;-66
2022/04/11 10:49:49;;;;;;;;;;;14.20;56.00;;;;;;5102400;28;20357;-67
2022/04/11 10:52:33;;;;;;;;;;;14.20;55.90;;;;;;5102152;28;19920;-67
2022/04/11 10:55:09;;;;;;;;;;;14.20;55.90;;;;;;5102286;28;20298;-68
2022/04/11 10:57:35;;;;;;;;;;;14.20;55.80;;;;;;5102177;28;19946;-67
2022/04/11 11:00:10;;;;;;;;;;;14.20;55.90;;;;;;5102084;28;19916;-66
2022/04/11 11:02:48;;;;;;;;;;;14.20;55.80;;;;;;5102126;28;19915;-68
2022/04/11 11:05:35;;;;;;;;;;;14.30;55.90;;;;;;5102033;28;20210;-66
2022/04/11 11:08:10;;;;;;;;;;;14.30;56.00;;;;;;5102025;28;19907;-68
2022/04/11 11:10:38;;;;;;;;;;;14.30;56.00;;;;;;5101915;28;19904;-67
2022/04/11 11:13:22;;;;;;;;;;;14.30;56.00;;;;;;5101845;28;19906;-66
2022/04/11 11:15:48;;;;;;;;;;;14.30;56.50;;;;;;5101867;28;19908;-67
2022/04/11 11:18:13;;;;;;;;;;;14.30;56.00;;;;;;5101605;28;20097;-66
2022/04/11 11:20:55;;;;;;;;;;;14.30;55.90;;;;;;5101790;28;19915;-66
2022/04/11 11:23:23;;;;;;;;;;;14.30;55.90;;;;;;5101690;28;19946;-67
2022/04/11 11:25:52;;;;;;;;;;;14.30;55.90;;;;;;5101690;28;19900;-66
2022/04/11 11:28:18;;;;;;;;;;;14.30;56.00;;;;;;5101654;28;19935;-66
2022/04/11 11:30:44;;;;;;;;;;;14.30;56.00;;;;;;5101511;28;19907;-66
2022/04/11 11:33:12;;;;;;;;;;;14.30;56.00;;;;;;5101552;28;19908;-66
2022/04/11 11:35:48;;;;;;;;;;;14.30;55.90;;;;;;5101484;28;19908;-67
2022/04/11 11:38:13;;;;;;;;;;;14.30;56.00;;;;;;5101329;28;20272;-67
2022/04/11 11:40:43;;;;;;;;;;;14.30;55.90;;;;;;5101382;28;19908;-68
2022/04/11 11:43:12;;;;;;;;;;;14.30;55.90;;;;;;5101281;28;20236;-67
2022/04/11 11:45:40;;;;;;;;;;;14.30;55.90;;;;;;5101333;28;19915;-67
2022/04/11 11:48:20;;;;;;;;;;;14.40;55.90;;;;;;5101192;28;19911;-67
2022/04/11 11:50:46;;;;;;;;;;;14.40;56.00;;;;;;5101078;28;19940;-67
2022/04/11 11:53:13;;;;;;;;;;;14.40;56.00;;;;;;5100952;28;19916;-66
2022/04/11 11:55:55;;;;;;;;;;;14.40;56.00;;;;;;5101080;28;20210;-67
2022/04/11 11:58:21;;;;;;;;;;;14.40;56.00;;;;;;5100874;28;19923;-67
2022/04/11 12:00:47;;;;;;;;;;;14.40;55.90;;;;;;5101016;28;19918;-66
2022/04/11 12:06:03;;;;;;;;;;;14.40;56.00;;;;;;5100872;28;19915;-67
2022/04/11 12:08:32;;;;;;;;;;;14.40;56.00;;;;;;5101024;28;19900;-66
2022/04/11 12:11:01;;;;;;;;;;;14.40;56.10;;;;;;5100786;28;19908;-66
2022/04/11 12:13:28;;;;;;;;;;;14.40;56.00;;;;;;5100765;28;19983;-67
2022/04/11 12:16:05;;;;;;;;;;;14.40;56.10;;;;;;5100661;28;19900;-66
2022/04/11 12:18:45;;;;;;;;;;;14.40;56.10;;;;;;5100684;28;20307;-66
2022/04/11 12:21:11;;;;;;;;;;;14.50;56.00;;;;;;5100623;28;19923;-66
2022/04/11 12:23:43;;;;;;;;;;;14.40;56.10;;;;;;5100551;28;19926;-67
2022/04/11 12:26:09;;;;;;;;;;;14.40;56.10;;;;;;5100778;28;19900;-67
2022/04/11 12:28:34;;;;;;;;;;;14.40;56.00;;;;;;5100519;28;20192;-67
2022/04/11 12:31:03;;;;;;;;;;;14.50;56.10;;;;;;5100441;28;19903;-67
2022/04/11 12:33:35;;;;;;;;;;;14.50;56.10;;;;;;5100432;28;19900;-66
2022/04/11 12:36:07;;;;;;;;;;;14.50;56.10;;;;;;5100408;28;19937;-67
2022/04/11 12:38:45;;;;;;;;;;;14.50;55.90;;;;;;5100257;28;19912;-67
2022/04/11 12:41:29;;;;;;;;;;;14.50;55.80;;;;;;5100213;28;19908;-67
2022/04/11 12:44:02;;;;;;;;;;;14.50;55.80;;;;;;5100217;28;19980;-66
2022/04/11 12:46:27;;;;;;;;;;;14.50;55.80;;;;;;5100217;28;19939;-66
2022/04/11 12:48:53;;;;;;;;;;;14.50;55.90;;;;;;5100220;28;19915;-67
2022/04/11 12:51:19;;;;;;;;;;;14.60;55.90;;;;;;5099989;28;19900;-66
2022/04/11 12:53:44;;;;;;;;;;;14.50;55.80;;;;;;5100081;28;19904;-66
2022/04/11 12:56:10;;;;;;;;;;;14.50;55.90;;;;;;5100102;28;19950;-66
2022/04/11 12:58:39;;;;;;;;;;;14.50;56.00;;;;;;5099997;28;19916;-66
2022/04/11 13:01:05;;;;;;;;;;;14.50;55.90;;;;;;5100001;28;19908;-67
2022/04/11 13:03:30;;;;;;;;;;;14.60;55.80;;;;;;5100028;28;19908;-66
2022/04/11 13:05:59;;;;;;;;;;;14.60;55.80;;;;;;5099979;28;20207;-67
2022/04/11 13:08:25;;;;;;;;;;;14.70;55.80;;;;;;5100147;28;19979;-67
2022/04/11 13:10:51;;;;;;;;;;;14.70;55.70;;;;;;5101787;28;19915;-66
2022/04/11 13:13:16;;;;;;;;;;;14.70;55.70;;;;;;5104231;28;19908;-66
2022/04/11 13:18:26;;;;;;;;;;;14.70;55.60;;;;;;5104005;28;19918;-66
2022/04/11 13:20:52;;;;;;;;;;;14.70;55.70;;;;;;5104021;28;19908;-67
2022/04/11 13:23:18;;;;;;;;;;;14.70;55.60;;;;;;5104017;28;19971;-66
2022/04/11 13:25:43;;;;;;;;;;;14.70;55.50;;;;;;5103891;28;19903;-67
2022/04/11 13:28:09;;;;;;;;;;;14.70;55.60;;;;;;5103848;28;19945;-66
2022/04/11 13:30:35;;;;;;;;;;;14.70;55.50;;;;;;5103811;28;19975;-66
2022/04/11 13:33:00;;;;;;;;;;;14.80;55.50;;;;;;5103794;28;19915;-67
2022/04/11 13:35:26;;;;;;;;;;;14.80;55.50;;;;;;5103691;28;19919;-66
2022/04/11 13:37:52;;;;;;;;;;;14.90;55.50;;;;;;5103665;28;20013;-67
2022/04/11 13:40:17;;;;;;;;;;;14.90;55.40;;;;;;5103525;28;19911;-66
2022/04/11 13:42:43;;;;;;;;;;;14.90;55.30;;;;;;5103530;28;19929;-67
2022/04/11 13:45:08;;;;;;;;;;;14.90;55.30;;;;;;5103566;28;19942;-67
2022/04/11 13:47:34;;;;;;;;;;;15.00;55.30;;;;;;5103425;28;19971;-66
2022/04/11 13:50:00;;;;;;;;;;;15.00;55.20;;;;;;5103444;28;19951;-67
2022/04/11 13:52:25;;;;;;;;;;;14.90;55.30;;;;;;5103256;28;20267;-67
2022/04/11 13:54:51;;;;;;;;;;;14.90;55.30;;;;;;5103570;28;20104;-67
2022/04/11 13:57:17;;;;;;;;;;;14.90;55.40;;;;;;5103316;28;19908;-66
2022/04/11 13:59:43;;;;;;;;;;;14.80;55.40;;;;;;5103157;28;19923;-67
2022/04/11 14:02:09;;;;;;;;;;;14.80;55.70;;;;;;5103285;28;20234;-67
2022/04/11 14:04:35;;;;;;;;;;;14.80;55.80;;;;;;5103012;28;19908;-67
2022/04/11 14:07:00;;;;;;;;;;;14.80;55.80;;;;;;5103109;28;19908;-67
2022/04/11 14:09:26;;;;;;;;;;;14.80;55.80;;;;;;5103232;28;19912;-66
2022/04/11 14:11:51;;;;;;;;;;;14.90;55.50;;;;;;5103026;28;19989;-67
2022/04/11 14:14:17;;;;;;;;;;;14.90;55.30;;;;;;5103203;28;19908;-66
2022/04/11 14:16:43;;;;;;;;;;;15.10;55.20;;;;;;5102870;28;19908;-68
2022/04/11 14:19:09;;;;;;;;;;;15.10;55.00;;;;;;5102839;28;20192;-67